Impacts TAF Board INFO
FOR SITUATIONAL AWARENESS. NOT TO BE USED FOR FLIGHT PLANNING PURPOSES.
IDs:

KMIA - Miami Intl, FL, US

Issued at 0520 UTC 19 Jan 2017
Updated at 0630 UTC 19 Jan 2017
Potential Impact None Slight Moderate High
Time0553Z 19/07Z 19/08Z 19/09Z 19/10Z 19/11Z 19/12Z 19/13Z 19/14Z 19/15Z 19/16Z 19/17Z 19/18Z 19/19Z
Type OBS PRVL PRVL PRVL PRVL PRVL PRVL PRVL PRVL PRVL PRVL PRVL PRVL PRVL
VIS 10 >6 >6 >6 >6 >6 >6 >6 >6 >6 >6 >6 >6 >6
CIG -- -- -- -- -- -- -- -- -- -- -- -- -- --
Cover SCT SCT SCT SCT SCT SCT SCT SCT SCT SKC SKC SKC SKC SKC
FltCat VFR VFR VFR VFR VFR VFR VFR VFR VFR VFR VFR VFR VFR VFR
WX -- -- -- -- -- -- -- -- -- -- -- -- -- --
WDir VRB 260 260 260 260 260 260 260 260 150 150 150 150 150
WSpd 0 3 3 3 3 3 3 3 3 6 6 6 6 6
WGst -- -- -- -- -- -- -- -- -- -- -- -- -- --

Raw TAF
KMIA 190520Z 1906/2006 26003KT P6SM SCT250
  FM191500 15006KT P6SM SKC
  FM200000 00000KT P6SM SKC


Raw METAR
KMIA 190553Z 00000KT 10SM FEW040 SCT250 21/16 A3009 RMK AO2 SLP190 T02110156 10244 20211 58011
KMIA 190453Z 27003KT 10SM FEW040 SCT250 22/16 A3011 RMK AO2 SLP194 T02220156 402830189
KMIA 190353Z 23004KT 10SM SCT250 22/17 A3012 RMK AO2 SLP199 T02220172

METAR Board
Radar Display
Forecast Discussion

FOR SITUATIONAL AWARENESS. NOT TO BE USED FOR FLIGHT PLANNING PURPOSES.

Page loaded:  06:30 UTC  |   10:30 PM Pacific  |   11:30 PM Mountain  |   12:30 AM Central  |   01:30 AM Eastern

 

ADVISORIES

FORECASTS

FORECASTS

OBSERVATIONS

USER TOOLS

ABOUT US